sensor_id;sensor_type;location;lat;lon;timestamp;temperature;humidity
26952;DHT22;14507;52.418;13.398;2023-07-29T00:01:27;18.60;99.90
26952;DHT22;14507;52.418;13.398;2023-07-29T00:03:52;18.40;99.90
26952;DHT22;14507;52.418;13.398;2023-07-29T00:06:18;18.10;99.90
26952;DHT22;14507;52.418;13.398;2023-07-29T00:08:44;18.40;99.90
26952;DHT22;14507;52.418;13.398;2023-07-29T00:11:09;18.30;99.90
26952;DHT22;14507;52.418;13.398;2023-07-29T00:13:35;18.30;99.90
26952;DHT22;14507;52.418;13.398;2023-07-29T00:16:00;18.30;99.90
26952;DHT22;14507;52.418;13.398;2023-07-29T00:18:26;18.20;99.90
26952;DHT22;14507;52.418;13.398;2023-07-29T00:20:53;18.20;99.90
26952;DHT22;14507;52.418;13.398;2023-07-29T00:23:18;18.20;99.90
26952;DHT22;14507;52.418;13.398;2023-07-29T00:25:44;18.20;99.90
26952;DHT22;14507;52.418;13.398;2023-07-29T00:28:12;18.20;99.90
26952;DHT22;14507;52.418;13.398;2023-07-29T00:30:38;18.10;99.90
26952;DHT22;14507;52.418;13.398;2023-07-29T00:33:03;18.10;99.90
26952;DHT22;14507;52.418;13.398;2023-07-29T00:35:29;18.10;99.90
26952;DHT22;14507;52.418;13.398;2023-07-29T00:37:54;18.10;99.90
26952;DHT22;14507;52.418;13.398;2023-07-29T00:40:21;18.00;99.90
26952;DHT22;14507;52.418;13.398;2023-07-29T00:42:48;18.00;99.90
26952;DHT22;14507;52.418;13.398;2023-07-29T00:45:14;18.00;99.90
26952;DHT22;14507;52.418;13.398;2023-07-29T00:47:41;18.00;99.90
26952;DHT22;14507;52.418;13.398;2023-07-29T00:50:09;18.00;99.90
26952;DHT22;14507;52.418;13.398;2023-07-29T00:52:35;17.90;99.90
26952;DHT22;14507;52.418;13.398;2023-07-29T00:55:01;17.90;99.90
26952;DHT22;14507;52.418;13.398;2023-07-29T00:57:27;17.90;99.90
26952;DHT22;14507;52.418;13.398;2023-07-29T00:59:54;17.90;99.90
26952;DHT22;14507;52.418;13.398;2023-07-29T01:02:20;17.90;99.90
26952;DHT22;14507;52.418;13.398;2023-07-29T01:04:54;17.80;99.90
26952;DHT22;14507;52.418;13.398;2023-07-29T01:10:40;17.70;99.90
26952;DHT22;14507;52.418;13.398;2023-07-29T01:13:37;17.70;99.90
26952;DHT22;14507;52.418;13.398;2023-07-29T01:16:20;17.70;99.90
26952;DHT22;14507;52.418;13.398;2023-07-29T01:18:47;17.60;99.90
26952;DHT22;14507;52.418;13.398;2023-07-29T01:21:16;17.60;99.90
26952;DHT22;14507;52.418;13.398;2023-07-29T01:23:42;17.60;99.90
26952;DHT22;14507;52.418;13.398;2023-07-29T01:26:08;17.60;99.90
26952;DHT22;14507;52.418;13.398;2023-07-29T01:28:33;17.60;99.90
26952;DHT22;14507;52.418;13.398;2023-07-29T01:31:28;17.50;99.90
26952;DHT22;14507;52.418;13.398;2023-07-29T01:33:59;17.50;99.90
26952;DHT22;14507;52.418;13.398;2023-07-29T01:36:28;17.40;99.90
26952;DHT22;14507;52.418;13.398;2023-07-29T01:38:56;17.40;99.90
26952;DHT22;14507;52.418;13.398;2023-07-29T01:41:22;17.50;99.90
26952;DHT22;14507;52.418;13.398;2023-07-29T01:43:50;17.40;99.90
26952;DHT22;14507;52.418;13.398;2023-07-29T01:46:16;17.40;99.90
26952;DHT22;14507;52.418;13.398;2023-07-29T01:48:42;17.40;99.90
26952;DHT22;14507;52.418;13.398;2023-07-29T01:51:10;17.40;99.90
26952;DHT22;14507;52.418;13.398;2023-07-29T01:53:36;17.40;99.90
26952;DHT22;14507;52.418;13.398;2023-07-29T01:56:02;17.30;99.90
26952;DHT22;14507;52.418;13.398;2023-07-29T01:58:27;17.30;99.90
26952;DHT22;14507;52.418;13.398;2023-07-29T02:00:53;17.30;99.90
26952;DHT22;14507;52.418;13.398;2023-07-29T02:03:19;17.30;99.90
26952;DHT22;14507;52.418;13.398;2023-07-29T02:05:44;17.20;99.90
26952;DHT22;14507;52.418;13.398;2023-07-29T02:08:10;17.20;99.90
26952;DHT22;14507;52.418;13.398;2023-07-29T02:10:36;17.20;99.90
26952;DHT22;14507;52.418;13.398;2023-07-29T02:13:02;17.20;99.90
26952;DHT22;14507;52.418;13.398;2023-07-29T02:15:28;17.20;99.90
26952;DHT22;14507;52.418;13.398;2023-07-29T02:17:54;17.20;99.90
26952;DHT22;14507;52.418;13.398;2023-07-29T02:20:19;17.10;99.90
26952;DHT22;14507;52.418;13.398;2023-07-29T02:22:45;17.10;99.90
26952;DHT22;14507;52.418;13.398;2023-07-29T02:25:11;17.10;99.90
26952;DHT22;14507;52.418;13.398;2023-07-29T02:27:36;17.10;99.90
26952;DHT22;14507;52.418;13.398;2023-07-29T02:30:03;17.10;99.90
26952;DHT22;14507;52.418;13.398;2023-07-29T02:32:28;17.10;99.90
26952;DHT22;14507;52.418;13.398;2023-07-29T02:34:54;17.00;99.90
26952;DHT22;14507;52.418;13.398;2023-07-29T02:37:20;17.00;99.90
26952;DHT22;14507;52.418;13.398;2023-07-29T02:39:46;16.90;99.90
26952;DHT22;14507;52.418;13.398;2023-07-29T02:42:11;16.90;99.90
26952;DHT22;14507;52.418;13.398;2023-07-29T02:44:37;16.90;99.90
26952;DHT22;14507;52.418;13.398;2023-07-29T02:47:03;17.00;99.90
26952;DHT22;14507;52.418;13.398;2023-07-29T02:49:29;17.00;99.90
26952;DHT22;14507;52.418;13.398;2023-07-29T02:51:54;16.90;99.90
26952;DHT22;14507;52.418;13.398;2023-07-29T02:54:20;16.90;99.90
26952;DHT22;14507;52.418;13.398;2023-07-29T02:56:45;16.90;99.90
26952;DHT22;14507;52.418;13.398;2023-07-29T02:59:11;16.90;99.90
26952;DHT22;14507;52.418;13.398;2023-07-29T03:01:37;16.60;99.90
26952;DHT22;14507;52.418;13.398;2023-07-29T03:04:02;16.90;99.90
26952;DHT22;14507;52.418;13.398;2023-07-29T03:06:28;16.90;99.90
26952;DHT22;14507;52.418;13.398;2023-07-29T03:08:54;16.90;99.90
26952;DHT22;14507;52.418;13.398;2023-07-29T03:11:19;16.80;99.90
26952;DHT22;14507;52.418;13.398;2023-07-29T03:13:45;16.90;99.90
26952;DHT22;14507;52.418;13.398;2023-07-29T03:16:15;16.80;99.90
26952;DHT22;14507;52.418;13.398;2023-07-29T03:18:43;16.90;99.90
26952;DHT22;14507;52.418;13.398;2023-07-29T03:21:09;16.90;99.90
26952;DHT22;14507;52.418;13.398;2023-07-29T03:23:35;16.80;99.90
26952;DHT22;14507;52.418;13.398;2023-07-29T03:26:02;16.90;99.90
26952;DHT22;14507;52.418;13.398;2023-07-29T03:28:33;16.90;99.90
26952;DHT22;14507;52.418;13.398;2023-07-29T03:30:58;16.90;99.90
26952;DHT22;14507;52.418;13.398;2023-07-29T03:33:25;16.80;99.90
26952;DHT22;14507;52.418;13.398;2023-07-29T03:35:51;16.90;99.90
26952;DHT22;14507;52.418;13.398;2023-07-29T03:38:17;17.00;99.90
26952;DHT22;14507;52.418;13.398;2023-07-29T03:40:43;16.90;99.90
26952;DHT22;14507;52.418;13.398;2023-07-29T03:43:09;16.90;99.90
26952;DHT22;14507;52.418;13.398;2023-07-29T03:45:35;16.90;99.90
26952;DHT22;14507;52.418;13.398;2023-07-29T03:48:01;16.80;99.90
26952;DHT22;14507;52.418;13.398;2023-07-29T03:50:28;16.80;99.90
26952;DHT22;14507;52.418;13.398;2023-07-29T03:52:54;16.90;99.90
26952;DHT22;14507;52.418;13.398;2023-07-29T03:55:19;16.90;99.90
26952;DHT22;14507;52.418;13.398;2023-07-29T03:57:46;16.90;99.90
26952;DHT22;14507;52.418;13.398;2023-07-29T04:00:11;16.90;99.90
26952;DHT22;14507;52.418;13.398;2023-07-29T04:02:37;17.00;99.90
26952;DHT22;14507;52.418;13.398;2023-07-29T04:05:04;17.00;99.90
26952;DHT22;14507;52.418;13.398;2023-07-29T04:07:31;17.10;99.90
26952;DHT22;14507;52.418;13.398;2023-07-29T04:09:56;17.10;99.90
26952;DHT22;14507;52.418;13.398;2023-07-29T04:12:23;17.10;99.90
26952;DHT22;14507;52.418;13.398;2023-07-29T04:14:48;17.10;99.90
26952;DHT22;14507;52.418;13.398;2023-07-29T04:17:14;17.20;99.90
26952;DHT22;14507;52.418;13.398;2023-07-29T04:19:40;16.70;99.90
26952;DHT22;14507;52.418;13.398;2023-07-29T04:22:05;17.20;99.90
26952;DHT22;14507;52.418;13.398;2023-07-29T04:24:31;17.20;99.90
26952;DHT22;14507;52.418;13.398;2023-07-29T04:26:57;17.30;99.90
26952;DHT22;14507;52.418;13.398;2023-07-29T04:29:22;17.40;99.90
26952;DHT22;14507;52.418;13.398;2023-07-29T04:31:51;17.40;99.90
26952;DHT22;14507;52.418;13.398;2023-07-29T04:34:20;17.40;99.90
26952;DHT22;14507;52.418;13.398;2023-07-29T04:36:46;17.40;99.90
26952;DHT22;14507;52.418;13.398;2023-07-29T04:41:41;17.50;99.90
26952;DHT22;14507;52.418;13.398;2023-07-29T04:44:07;17.60;99.90
26952;DHT22;14507;52.418;13.398;2023-07-29T04:46:33;17.60;99.90
26952;DHT22;14507;52.418;13.398;2023-07-29T04:48:59;17.70;99.90
26952;DHT22;14507;52.418;13.398;2023-07-29T04:51:24;17.80;99.90
26952;DHT22;14507;52.418;13.398;2023-07-29T04:53:50;17.80;99.90
26952;DHT22;14507;52.418;13.398;2023-07-29T04:56:16;18.00;99.90
26952;DHT22;14507;52.418;13.398;2023-07-29T04:58:42;18.10;99.90
26952;DHT22;14507;52.418;13.398;2023-07-29T05:01:07;18.20;99.90
26952;DHT22;14507;52.418;13.398;2023-07-29T05:03:33;18.20;99.90
26952;DHT22;14507;52.418;13.398;2023-07-29T05:05:59;18.30;99.90
26952;DHT22;14507;52.418;13.398;2023-07-29T05:08:26;18.30;99.90
26952;DHT22;14507;52.418;13.398;2023-07-29T05:10:52;18.30;99.90
26952;DHT22;14507;52.418;13.398;2023-07-29T05:13:18;18.30;99.90
26952;DHT22;14507;52.418;13.398;2023-07-29T05:15:44;18.30;99.90
26952;DHT22;14507;52.418;13.398;2023-07-29T05:18:10;18.60;99.90
26952;DHT22;14507;52.418;13.398;2023-07-29T05:20:35;19.10;99.90
26952;DHT22;14507;52.418;13.398;2023-07-29T05:23:01;19.80;99.90
26952;DHT22;14507;52.418;13.398;2023-07-29T05:25:27;20.40;99.90
26952;DHT22;14507;52.418;13.398;2023-07-29T05:27:52;20.80;99.90
26952;DHT22;14507;52.418;13.398;2023-07-29T05:30:18;21.10;99.90
26952;DHT22;14507;52.418;13.398;2023-07-29T05:32:44;21.20;99.90
26952;DHT22;14507;52.418;13.398;2023-07-29T05:35:10;21.10;99.90
26952;DHT22;14507;52.418;13.398;2023-07-29T05:37:39;21.00;99.90
26952;DHT22;14507;52.418;13.398;2023-07-29T05:40:06;20.80;99.90
26952;DHT22;14507;52.418;13.398;2023-07-29T05:42:32;20.60;99.90
26952;DHT22;14507;52.418;13.398;2023-07-29T05:44:58;20.50;99.90
26952;DHT22;14507;52.418;13.398;2023-07-29T05:47:24;20.60;99.90
26952;DHT22;14507;52.418;13.398;2023-07-29T05:49:50;20.80;99.90
26952;DHT22;14507;52.418;13.398;2023-07-29T05:52:15;21.00;99.90
26952;DHT22;14507;52.418;13.398;2023-07-29T05:54:41;21.10;99.90
26952;DHT22;14507;52.418;13.398;2023-07-29T05:57:09;21.30;99.90
26952;DHT22;14507;52.418;13.398;2023-07-29T05:59:35;21.40;99.90
26952;DHT22;14507;52.418;13.398;2023-07-29T06:02:01;21.50;99.90
26952;DHT22;14507;52.418;13.398;2023-07-29T06:04:26;21.50;99.90
26952;DHT22;14507;52.418;13.398;2023-07-29T06:06:52;21.90;99.90
26952;DHT22;14507;52.418;13.398;2023-07-29T06:09:18;22.60;99.90
26952;DHT22;14507;52.418;13.398;2023-07-29T06:11:46;23.30;99.90
26952;DHT22;14507;52.418;13.398;2023-07-29T06:14:12;23.80;99.90
26952;DHT22;14507;52.418;13.398;2023-07-29T06:16:38;24.00;99.90
26952;DHT22;14507;52.418;13.398;2023-07-29T06:19:03;24.10;99.90
26952;DHT22;14507;52.418;13.398;2023-07-29T06:21:29;24.20;99.90
26952;DHT22;14507;52.418;13.398;2023-07-29T06:23:55;24.70;99.90
26952;DHT22;14507;52.418;13.398;2023-07-29T06:26:20;25.20;99.90
26952;DHT22;14507;52.418;13.398;2023-07-29T06:28:46;25.70;99.90
26952;DHT22;14507;52.418;13.398;2023-07-29T06:31:11;26.10;99.90
26952;DHT22;14507;52.418;13.398;2023-07-29T06:33:37;26.50;99.90
26952;DHT22;14507;52.418;13.398;2023-07-29T06:36:03;27.10;99.90
26952;DHT22;14507;52.418;13.398;2023-07-29T06:38:30;27.40;99.90
26952;DHT22;14507;52.418;13.398;2023-07-29T06:40:55;27.60;99.90
26952;DHT22;14507;52.418;13.398;2023-07-29T06:43:21;27.70;99.90
26952;DHT22;14507;52.418;13.398;2023-07-29T06:45:47;27.80;99.90
26952;DHT22;14507;52.418;13.398;2023-07-29T06:48:12;27.90;99.90
26952;DHT22;14507;52.418;13.398;2023-07-29T06:50:38;28.00;99.90
26952;DHT22;14507;52.418;13.398;2023-07-29T06:53:03;28.00;99.90
26952;DHT22;14507;52.418;13.398;2023-07-29T06:55:29;27.60;99.90
26952;DHT22;14507;52.418;13.398;2023-07-29T06:57:55;27.30;99.90
26952;DHT22;14507;52.418;13.398;2023-07-29T07:00:20;26.90;99.90
26952;DHT22;14507;52.418;13.398;2023-07-29T07:02:46;26.80;99.90
26952;DHT22;14507;52.418;13.398;2023-07-29T07:05:12;26.80;99.90
26952;DHT22;14507;52.418;13.398;2023-07-29T07:07:37;27.20;99.90
26952;DHT22;14507;52.418;13.398;2023-07-29T07:10:03;27.50;99.90
26952;DHT22;14507;52.418;13.398;2023-07-29T07:12:29;27.70;99.90
26952;DHT22;14507;52.418;13.398;2023-07-29T07:14:55;27.70;99.90
26952;DHT22;14507;52.418;13.398;2023-07-29T07:17:20;27.80;99.90
26952;DHT22;14507;52.418;13.398;2023-07-29T07:19:46;27.90;99.90
26952;DHT22;14507;52.418;13.398;2023-07-29T07:22:15;28.00;99.90
26952;DHT22;14507;52.418;13.398;2023-07-29T07:24:41;28.10;99.90
26952;DHT22;14507;52.418;13.398;2023-07-29T07:27:07;28.20;99.90
26952;DHT22;14507;52.418;13.398;2023-07-29T07:29:32;28.00;99.90
26952;DHT22;14507;52.418;13.398;2023-07-29T07:31:58;28.00;99.90
26952;DHT22;14507;52.418;13.398;2023-07-29T07:34:24;28.00;99.80
26952;DHT22;14507;52.418;13.398;2023-07-29T07:36:50;27.90;99.90
26952;DHT22;14507;52.418;13.398;2023-07-29T07:39:15;27.60;99.90
26952;DHT22;14507;52.418;13.398;2023-07-29T07:41:42;27.30;99.90
26952;DHT22;14507;52.418;13.398;2023-07-29T07:44:08;27.10;99.90
26952;DHT22;14507;52.418;13.398;2023-07-29T07:46:33;26.90;99.90
26952;DHT22;14507;52.418;13.398;2023-07-29T07:48:59;26.80;99.90
26952;DHT22;14507;52.418;13.398;2023-07-29T07:51:24;26.60;99.90
26952;DHT22;14507;52.418;13.398;2023-07-29T07:53:50;26.40;99.90
26952;DHT22;14507;52.418;13.398;2023-07-29T07:56:16;26.30;99.90
26952;DHT22;14507;52.418;13.398;2023-07-29T07:58:42;26.20;99.90
26952;DHT22;14507;52.418;13.398;2023-07-29T08:01:08;26.30;99.90
26952;DHT22;14507;52.418;13.398;2023-07-29T08:03:35;26.70;99.90
26952;DHT22;14507;52.418;13.398;2023-07-29T08:06:01;27.10;99.90
26952;DHT22;14507;52.418;13.398;2023-07-29T08:08:27;27.30;99.90
26952;DHT22;14507;52.418;13.398;2023-07-29T08:10:54;27.60;99.90
26952;DHT22;14507;52.418;13.398;2023-07-29T08:13:21;27.70;99.90
26952;DHT22;14507;52.418;13.398;2023-07-29T08:15:50;27.40;99.90
26952;DHT22;14507;52.418;13.398;2023-07-29T08:18:17;27.50;99.90
26952;DHT22;14507;52.418;13.398;2023-07-29T08:23:19;27.70;99.90
26952;DHT22;14507;52.418;13.398;2023-07-29T08:25:44;28.50;98.90
26952;DHT22;14507;52.418;13.398;2023-07-29T08:28:10;28.60;99.00
26952;DHT22;14507;52.418;13.398;2023-07-29T08:30:36;29.20;99.30
26952;DHT22;14507;52.418;13.398;2023-07-29T08:33:02;29.70;97.90
26952;DHT22;14507;52.418;13.398;2023-07-29T08:35:28;29.60;97.20
26952;DHT22;14507;52.418;13.398;2023-07-29T08:37:53;29.30;98.50
26952;DHT22;14507;52.418;13.398;2023-07-29T08:40:23;28.80;98.30
26952;DHT22;14507;52.418;13.398;2023-07-29T08:42:55;28.40;98.70
26952;DHT22;14507;52.418;13.398;2023-07-29T08:45:23;28.10;98.90
26952;DHT22;14507;52.418;13.398;2023-07-29T08:47:50;27.90;99.80
26952;DHT22;14507;52.418;13.398;2023-07-29T08:50:20;27.90;99.60
26952;DHT22;14507;52.418;13.398;2023-07-29T08:52:46;27.80;99.90
26952;DHT22;14507;52.418;13.398;2023-07-29T08:55:12;27.90;99.90
26952;DHT22;14507;52.418;13.398;2023-07-29T08:57:38;27.80;99.60
26952;DHT22;14507;52.418;13.398;2023-07-29T09:00:06;27.80;99.90
26952;DHT22;14507;52.418;13.398;2023-07-29T09:02:32;27.80;99.90
26952;DHT22;14507;52.418;13.398;2023-07-29T09:04:58;27.80;99.80
26952;DHT22;14507;52.418;13.398;2023-07-29T09:07:24;27.60;99.70
26952;DHT22;14507;52.418;13.398;2023-07-29T09:09:50;27.40;99.90
26952;DHT22;14507;52.418;13.398;2023-07-29T09:12:16;27.20;99.90
26952;DHT22;14507;52.418;13.398;2023-07-29T09:14:41;27.00;99.90
26952;DHT22;14507;52.418;13.398;2023-07-29T09:17:08;26.80;99.90
26952;DHT22;14507;52.418;13.398;2023-07-29T09:19:35;26.80;99.90
26952;DHT22;14507;52.418;13.398;2023-07-29T09:22:01;26.90;99.90
26952;DHT22;14507;52.418;13.398;2023-07-29T09:24:26;27.00;99.90
26952;DHT22;14507;52.418;13.398;2023-07-29T09:26:55;27.20;99.90
26952;DHT22;14507;52.418;13.398;2023-07-29T09:29:27;27.40;99.90
26952;DHT22;14507;52.418;13.398;2023-07-29T09:31:53;27.60;99.90
26952;DHT22;14507;52.418;13.398;2023-07-29T09:34:18;27.80;99.90
26952;DHT22;14507;52.418;13.398;2023-07-29T09:36:44;27.90;99.50
26952;DHT22;14507;52.418;13.398;2023-07-29T09:39:13;27.80;99.60
26952;DHT22;14507;52.418;13.398;2023-07-29T09:41:38;27.70;99.90
26952;DHT22;14507;52.418;13.398;2023-07-29T09:44:04;27.50;99.60
26952;DHT22;14507;52.418;13.398;2023-07-29T09:46:34;27.40;99.90
26952;DHT22;14507;52.418;13.398;2023-07-29T09:49:03;27.30;99.90
26952;DHT22;14507;52.418;13.398;2023-07-29T09:51:29;27.20;99.90
26952;DHT22;14507;52.418;13.398;2023-07-29T09:53:55;27.20;99.90
26952;DHT22;14507;52.418;13.398;2023-07-29T09:56:30;27.30;99.90
26952;DHT22;14507;52.418;13.398;2023-07-29T09:58:56;27.40;99.90
26952;DHT22;14507;52.418;13.398;2023-07-29T10:01:23;27.50;99.90
26952;DHT22;14507;52.418;13.398;2023-07-29T10:03:49;27.70;99.90
26952;DHT22;14507;52.418;13.398;2023-07-29T10:06:15;27.90;99.40
26952;DHT22;14507;52.418;13.398;2023-07-29T10:08:42;27.90;98.90
26952;DHT22;14507;52.418;13.398;2023-07-29T10:11:09;27.90;98.90
26952;DHT22;14507;52.418;13.398;2023-07-29T10:13:35;27.90;98.80
26952;DHT22;14507;52.418;13.398;2023-07-29T10:16:02;27.80;99.80
26952;DHT22;14507;52.418;13.398;2023-07-29T10:18:29;27.80;99.90
26952;DHT22;14507;52.418;13.398;2023-07-29T10:20:57;27.80;99.90
26952;DHT22;14507;52.418;13.398;2023-07-29T10:23:25;27.70;99.90
26952;DHT22;14507;52.418;13.398;2023-07-29T10:26:05;27.60;99.70
26952;DHT22;14507;52.418;13.398;2023-07-29T10:28:32;27.60;99.70
26952;DHT22;14507;52.418;13.398;2023-07-29T10:30:59;27.60;99.90
26952;DHT22;14507;52.418;13.398;2023-07-29T10:33:27;27.70;98.90
26952;DHT22;14507;52.418;13.398;2023-07-29T10:35:53;27.70;98.80
26952;DHT22;14507;52.418;13.398;2023-07-29T10:38:24;27.60;98.20
26952;DHT22;14507;52.418;13.398;2023-07-29T10:40:52;27.60;98.40
26952;DHT22;14507;52.418;13.398;2023-07-29T10:45:55;27.50;97.70
26952;DHT22;14507;52.418;13.398;2023-07-29T10:51:30;27.50;98.00
26952;DHT22;14507;52.418;13.398;2023-07-29T10:54:02;27.50;97.60
26952;DHT22;14507;52.418;13.398;2023-07-29T10:56:36;27.50;97.90
26952;DHT22;14507;52.418;13.398;2023-07-29T11:01:50;27.50;97.30
26952;DHT22;14507;52.418;13.398;2023-07-29T11:12:50;27.20;97.70
26952;DHT22;14507;52.418;13.398;2023-07-29T11:15:27;26.90;99.50
26952;DHT22;14507;52.418;13.398;2023-07-29T11:17:55;26.70;99.90
26952;DHT22;14507;52.418;13.398;2023-07-29T11:20:28;26.30;99.90
26952;DHT22;14507;52.418;13.398;2023-07-29T11:22:55;25.80;99.90
26952;DHT22;14507;52.418;13.398;2023-07-29T11:25:22;25.40;99.90
26952;DHT22;14507;52.418;13.398;2023-07-29T11:27:49;25.00;99.90
26952;DHT22;14507;52.418;13.398;2023-07-29T11:30:15;24.80;99.90
26952;DHT22;14507;52.418;13.398;2023-07-29T11:32:44;24.60;99.90
26952;DHT22;14507;52.418;13.398;2023-07-29T11:35:11;24.40;99.90
26952;DHT22;14507;52.418;13.398;2023-07-29T11:37:38;24.30;99.90
26952;DHT22;14507;52.418;13.398;2023-07-29T11:40:05;24.10;99.90
26952;DHT22;14507;52.418;13.398;2023-07-29T11:42:33;24.10;99.90
26952;DHT22;14507;52.418;13.398;2023-07-29T11:44:59;24.10;99.90
26952;DHT22;14507;52.418;13.398;2023-07-29T11:47:26;24.20;99.90
26952;DHT22;14507;52.418;13.398;2023-07-29T11:49:52;24.30;99.90
26952;DHT22;14507;52.418;13.398;2023-07-29T11:52:18;24.40;99.90
26952;DHT22;14507;52.418;13.398;2023-07-29T11:54:45;24.50;99.90
26952;DHT22;14507;52.418;13.398;2023-07-29T11:57:11;24.50;99.90
26952;DHT22;14507;52.418;13.398;2023-07-29T11:59:38;24.50;99.90
26952;DHT22;14507;52.418;13.398;2023-07-29T12:02:27;24.40;99.90
26952;DHT22;14507;52.418;13.398;2023-07-29T12:04:52;24.40;99.90
26952;DHT22;14507;52.418;13.398;2023-07-29T12:07:18;24.40;99.90
26952;DHT22;14507;52.418;13.398;2023-07-29T12:09:46;24.30;99.90
26952;DHT22;14507;52.418;13.398;2023-07-29T12:12:12;24.20;99.90
26952;DHT22;14507;52.418;13.398;2023-07-29T12:14:37;24.10;99.90
26952;DHT22;14507;52.418;13.398;2023-07-29T12:17:05;24.00;99.90
26952;DHT22;14507;52.418;13.398;2023-07-29T12:19:35;24.00;99.90
26952;DHT22;14507;52.418;13.398;2023-07-29T12:22:02;23.90;99.90
26952;DHT22;14507;52.418;13.398;2023-07-29T12:24:32;23.80;99.90
26952;DHT22;14507;52.418;13.398;2023-07-29T12:26:59;23.70;99.90
26952;DHT22;14507;52.418;13.398;2023-07-29T12:29:25;23.60;99.90
26952;DHT22;14507;52.418;13.398;2023-07-29T12:31:59;23.60;99.90
26952;DHT22;14507;52.418;13.398;2023-07-29T12:34:27;23.50;99.90
26952;DHT22;14507;52.418;13.398;2023-07-29T12:36:56;23.40;99.90
26952;DHT22;14507;52.418;13.398;2023-07-29T12:39:26;23.40;99.90
26952;DHT22;14507;52.418;13.398;2023-07-29T12:41:53;23.40;99.90
26952;DHT22;14507;52.418;13.398;2023-07-29T12:44:19;23.50;99.90
26952;DHT22;14507;52.418;13.398;2023-07-29T12:46:45;23.60;99.90
26952;DHT22;14507;52.418;13.398;2023-07-29T12:49:11;23.60;99.90
26952;DHT22;14507;52.418;13.398;2023-07-29T12:51:37;23.80;99.90
26952;DHT22;14507;52.418;13.398;2023-07-29T12:54:04;23.90;99.90
26952;DHT22;14507;52.418;13.398;2023-07-29T12:56:30;24.00;99.90
26952;DHT22;14507;52.418;13.398;2023-07-29T12:58:59;24.10;99.90
26952;DHT22;14507;52.418;13.398;2023-07-29T13:01:26;24.30;99.90
26952;DHT22;14507;52.418;13.398;2023-07-29T13:03:52;24.40;99.90
26952;DHT22;14507;52.418;13.398;2023-07-29T13:06:18;24.60;99.90
26952;DHT22;14507;52.418;13.398;2023-07-29T13:08:44;24.70;99.90
26952;DHT22;14507;52.418;13.398;2023-07-29T13:11:10;24.80;99.90
26952;DHT22;14507;52.418;13.398;2023-07-29T13:13:36;24.80;99.90
26952;DHT22;14507;52.418;13.398;2023-07-29T13:16:02;24.80;99.90
26952;DHT22;14507;52.418;13.398;2023-07-29T13:18:28;24.70;99.90
26952;DHT22;14507;52.418;13.398;2023-07-29T13:20:54;24.70;99.90
26952;DHT22;14507;52.418;13.398;2023-07-29T13:23:20;24.60;99.90
26952;DHT22;14507;52.418;13.398;2023-07-29T13:25:45;24.50;99.90
26952;DHT22;14507;52.418;13.398;2023-07-29T13:28:11;24.40;99.90
26952;DHT22;14507;52.418;13.398;2023-07-29T13:30:39;24.40;99.90
26952;DHT22;14507;52.418;13.398;2023-07-29T13:33:05;24.30;99.90
26952;DHT22;14507;52.418;13.398;2023-07-29T13:35:31;24.30;99.90
26952;DHT22;14507;52.418;13.398;2023-07-29T13:37:56;24.40;99.90
26952;DHT22;14507;52.418;13.398;2023-07-29T13:40:22;24.60;99.90
26952;DHT22;14507;52.418;13.398;2023-07-29T13:42:48;24.80;99.90
26952;DHT22;14507;52.418;13.398;2023-07-29T13:45:13;24.90;99.90
26952;DHT22;14507;52.418;13.398;2023-07-29T13:47:39;25.00;99.90
26952;DHT22;14507;52.418;13.398;2023-07-29T13:50:05;25.00;99.90
26952;DHT22;14507;52.418;13.398;2023-07-29T13:52:33;25.00;99.90
26952;DHT22;14507;52.418;13.398;2023-07-29T13:54:58;25.20;99.90
26952;DHT22;14507;52.418;13.398;2023-07-29T13:57:24;25.30;99.90
26952;DHT22;14507;52.418;13.398;2023-07-29T13:59:49;25.30;99.90
26952;DHT22;14507;52.418;13.398;2023-07-29T14:02:15;25.30;99.90
26952;DHT22;14507;52.418;13.398;2023-07-29T14:04:41;25.30;99.90
26952;DHT22;14507;52.418;13.398;2023-07-29T14:07:06;25.20;99.90
26952;DHT22;14507;52.418;13.398;2023-07-29T14:09:32;25.20;99.90
26952;DHT22;14507;52.418;13.398;2023-07-29T14:11:57;25.20;99.90
26952;DHT22;14507;52.418;13.398;2023-07-29T14:14:23;25.20;99.90
26952;DHT22;14507;52.418;13.398;2023-07-29T14:16:49;25.30;99.90
26952;DHT22;14507;52.418;13.398;2023-07-29T14:19:14;25.30;99.90
26952;DHT22;14507;52.418;13.398;2023-07-29T14:21:40;25.30;99.90
26952;DHT22;14507;52.418;13.398;2023-07-29T14:24:08;25.30;99.90
26952;DHT22;14507;52.418;13.398;2023-07-29T14:26:33;25.20;99.90
26952;DHT22;14507;52.418;13.398;2023-07-29T14:28:59;25.10;99.90
26952;DHT22;14507;52.418;13.398;2023-07-29T14:31:25;25.10;99.90
26952;DHT22;14507;52.418;13.398;2023-07-29T14:33:50;25.00;99.90
26952;DHT22;14507;52.418;13.398;2023-07-29T14:36:16;24.90;99.90
26952;DHT22;14507;52.418;13.398;2023-07-29T14:38:42;24.80;99.90
26952;DHT22;14507;52.418;13.398;2023-07-29T14:41:08;24.80;99.90
26952;DHT22;14507;52.418;13.398;2023-07-29T14:43:34;24.70;99.90
26952;DHT22;14507;52.418;13.398;2023-07-29T14:46:00;24.70;99.90
26952;DHT22;14507;52.418;13.398;2023-07-29T14:48:26;24.80;99.90
26952;DHT22;14507;52.418;13.398;2023-07-29T14:50:51;24.80;99.90
26952;DHT22;14507;52.418;13.398;2023-07-29T14:53:17;24.80;99.90
26952;DHT22;14507;52.418;13.398;2023-07-29T14:55:43;24.80;99.90
26952;DHT22;14507;52.418;13.398;2023-07-29T14:58:09;24.80;99.90
26952;DHT22;14507;52.418;13.398;2023-07-29T15:00:34;24.80;99.90
26952;DHT22;14507;52.418;13.398;2023-07-29T15:03:00;24.60;99.90
26952;DHT22;14507;52.418;13.398;2023-07-29T15:05:26;24.50;99.90
26952;DHT22;14507;52.418;13.398;2023-07-29T15:07:52;24.40;99.90
26952;DHT22;14507;52.418;13.398;2023-07-29T15:10:18;24.30;99.90
26952;DHT22;14507;52.418;13.398;2023-07-29T15:12:46;24.20;99.90
26952;DHT22;14507;52.418;13.398;2023-07-29T15:15:12;24.20;99.90
26952;DHT22;14507;52.418;13.398;2023-07-29T15:17:38;24.10;99.90
26952;DHT22;14507;52.418;13.398;2023-07-29T15:20:04;24.10;99.90
26952;DHT22;14507;52.418;13.398;2023-07-29T15:22:30;24.10;99.90
26952;DHT22;14507;52.418;13.398;2023-07-29T15:24:59;24.10;99.90
26952;DHT22;14507;52.418;13.398;2023-07-29T15:27:28;24.10;99.90
26952;DHT22;14507;52.418;13.398;2023-07-29T15:29:54;24.10;99.90
26952;DHT22;14507;52.418;13.398;2023-07-29T15:32:20;24.10;99.90
26952;DHT22;14507;52.418;13.398;2023-07-29T15:34:46;24.00;99.90
26952;DHT22;14507;52.418;13.398;2023-07-29T15:37:12;24.00;99.90